Earlville, New York
Current Conditions -  °F | °C
As of 8:18 PM on Thursday 27 Nov 2014 (Local Time) from KRME Reporting Station
Light Snow Light Snow  
Wind Chill: 28°   Ceiling: 2900
Heat Index: 28°   Visibility: 5mi
Dew Point: 26°   Wind: 0mph
Humidity: 92%   Direction: NA
Pressure: 30.06"   Gusts: NA
Location:  42.74°N, 75.55°W
Report Text: KRME 280118Z 00000KT 5SM -SN BR FEW024 BKN029 OVC046 M02/M03 A3006 RMK AO2 P0000 T10221033
Loading
Personal Weather Stations






























Interactive Weather Map New forecast layout! Learn more

10-Day Weather Forecast

Advertisements
Track Severe Weather on mobile